sensor_id;sensor_type;location;lat;lon;timestamp;P1;durP1;ratioP1;P2;durP2;ratioP2
30010;SDS011;16851;53.564;8.112;2023-05-07T00:02:35;39.10;;;20.02;;
30010;SDS011;16851;53.564;8.112;2023-05-07T00:07:37;25.77;;;18.95;;
30010;SDS011;16851;53.564;8.112;2023-05-07T00:12:41;26.65;;;19.63;;
30010;SDS011;16851;53.564;8.112;2023-05-07T00:17:46;27.92;;;19.13;;
30010;SDS011;16851;53.564;8.112;2023-05-07T00:22:47;30.63;;;20.08;;
30010;SDS011;16851;53.564;8.112;2023-05-07T00:27:49;26.27;;;19.35;;
30010;SDS011;16851;53.564;8.112;2023-05-07T00:32:51;27.55;;;20.13;;
30010;SDS011;16851;53.564;8.112;2023-05-07T00:37:53;26.33;;;19.27;;
30010;SDS011;16851;53.564;8.112;2023-05-07T00:42:54;25.48;;;19.08;;
30010;SDS011;16851;53.564;8.112;2023-05-07T00:48:00;28.98;;;20.20;;
30010;SDS011;16851;53.564;8.112;2023-05-07T00:53:02;22.35;;;18.25;;
30010;SDS011;16851;53.564;8.112;2023-05-07T00:58:05;25.45;;;19.00;;
30010;SDS011;16851;53.564;8.112;2023-05-07T01:03:10;25.27;;;18.42;;
30010;SDS011;16851;53.564;8.112;2023-05-07T01:08:12;20.33;;;16.42;;
30010;SDS011;16851;53.564;8.112;2023-05-07T01:13:15;23.45;;;17.67;;
30010;SDS011;16851;53.564;8.112;2023-05-07T01:18:20;21.33;;;17.60;;
30010;SDS011;16851;53.564;8.112;2023-05-07T01:23:27;21.38;;;17.70;;
30010;SDS011;16851;53.564;8.112;2023-05-07T01:28:31;19.90;;;16.80;;
30010;SDS011;16851;53.564;8.112;2023-05-07T01:33:36;20.88;;;17.23;;
30010;SDS011;16851;53.564;8.112;2023-05-07T01:38:39;22.70;;;17.58;;
30010;SDS011;16851;53.564;8.112;2023-05-07T01:43:43;19.42;;;16.13;;
30010;SDS011;16851;53.564;8.112;2023-05-07T01:48:47;19.48;;;16.33;;
30010;SDS011;16851;53.564;8.112;2023-05-07T01:53:49;22.38;;;16.42;;
30010;SDS011;16851;53.564;8.112;2023-05-07T01:58:53;21.80;;;15.98;;
30010;SDS011;16851;53.564;8.112;2023-05-07T02:03:57;21.33;;;15.77;;
30010;SDS011;16851;53.564;8.112;2023-05-07T02:09:02;21.80;;;16.43;;
30010;SDS011;16851;53.564;8.112;2023-05-07T02:14:04;21.38;;;17.35;;
30010;SDS011;16851;53.564;8.112;2023-05-07T02:19:06;19.90;;;16.67;;
30010;SDS011;16851;53.564;8.112;2023-05-07T02:24:10;20.92;;;17.17;;
30010;SDS011;16851;53.564;8.112;2023-05-07T02:29:14;21.77;;;18.00;;
30010;SDS011;16851;53.564;8.112;2023-05-07T02:34:21;21.48;;;18.05;;
30010;SDS011;16851;53.564;8.112;2023-05-07T02:39:22;21.87;;;17.70;;
30010;SDS011;16851;53.564;8.112;2023-05-07T02:44:30;20.88;;;18.15;;
30010;SDS011;16851;53.564;8.112;2023-05-07T02:49:35;21.13;;;17.98;;
30010;SDS011;16851;53.564;8.112;2023-05-07T02:54:37;21.15;;;18.15;;
30010;SDS011;16851;53.564;8.112;2023-05-07T02:59:39;21.77;;;18.02;;
30010;SDS011;16851;53.564;8.112;2023-05-07T03:04:41;24.13;;;19.77;;
30010;SDS011;16851;53.564;8.112;2023-05-07T03:09:43;20.73;;;17.90;;
30010;SDS011;16851;53.564;8.112;2023-05-07T03:14:44;21.52;;;17.30;;
30010;SDS011;16851;53.564;8.112;2023-05-07T03:19:48;19.97;;;16.93;;
30010;SDS011;16851;53.564;8.112;2023-05-07T03:24:52;21.60;;;17.47;;
30010;SDS011;16851;53.564;8.112;2023-05-07T03:29:57;19.50;;;16.23;;
30010;SDS011;16851;53.564;8.112;2023-05-07T03:34:59;21.17;;;16.23;;
30010;SDS011;16851;53.564;8.112;2023-05-07T03:40:05;20.50;;;16.52;;
30010;SDS011;16851;53.564;8.112;2023-05-07T03:45:16;19.60;;;16.43;;
30010;SDS011;16851;53.564;8.112;2023-05-07T03:50:24;20.57;;;16.57;;
30010;SDS011;16851;53.564;8.112;2023-05-07T03:55:26;22.23;;;17.05;;
30010;SDS011;16851;53.564;8.112;2023-05-07T04:00:33;24.40;;;17.67;;
30010;SDS011;16851;53.564;8.112;2023-05-07T04:05:51;23.93;;;17.73;;
30010;SDS011;16851;53.564;8.112;2023-05-07T04:10:56;27.30;;;17.17;;
30010;SDS011;16851;53.564;8.112;2023-05-07T04:16:03;23.80;;;18.67;;
30010;SDS011;16851;53.564;8.112;2023-05-07T04:21:15;20.70;;;16.57;;
30010;SDS011;16851;53.564;8.112;2023-05-07T04:26:17;20.27;;;16.43;;
30010;SDS011;16851;53.564;8.112;2023-05-07T04:31:20;20.90;;;17.77;;
30010;SDS011;16851;53.564;8.112;2023-05-07T04:36:28;17.30;;;14.07;;
30010;SDS011;16851;53.564;8.112;2023-05-07T04:41:37;19.77;;;15.43;;
30010;SDS011;16851;53.564;8.112;2023-05-07T04:46:40;19.73;;;14.37;;
30010;SDS011;16851;53.564;8.112;2023-05-07T04:51:45;19.37;;;14.37;;
30010;SDS011;16851;53.564;8.112;2023-05-07T04:56:55;16.23;;;13.70;;
30010;SDS011;16851;53.564;8.112;2023-05-07T05:01:57;19.10;;;13.20;;
30010;SDS011;16851;53.564;8.112;2023-05-07T05:07:06;15.40;;;12.23;;
30010;SDS011;16851;53.564;8.112;2023-05-07T05:12:08;15.63;;;12.80;;
30010;SDS011;16851;53.564;8.112;2023-05-07T05:17:11;14.20;;;11.93;;
30010;SDS011;16851;53.564;8.112;2023-05-07T05:22:13;14.87;;;11.93;;
30010;SDS011;16851;53.564;8.112;2023-05-07T05:27:17;14.37;;;11.77;;
30010;SDS011;16851;53.564;8.112;2023-05-07T05:32:19;13.80;;;11.50;;
30010;SDS011;16851;53.564;8.112;2023-05-07T05:37:21;12.33;;;11.00;;
30010;SDS011;16851;53.564;8.112;2023-05-07T05:42:27;12.53;;;10.70;;
30010;SDS011;16851;53.564;8.112;2023-05-07T05:47:31;13.73;;;11.00;;
30010;SDS011;16851;53.564;8.112;2023-05-07T05:52:34;12.60;;;11.03;;
30010;SDS011;16851;53.564;8.112;2023-05-07T05:57:36;12.23;;;9.73;;
30010;SDS011;16851;53.564;8.112;2023-05-07T06:02:41;11.05;;;9.60;;
30010;SDS011;16851;53.564;8.112;2023-05-07T06:07:51;12.52;;;9.77;;
30010;SDS011;16851;53.564;8.112;2023-05-07T06:12:53;14.70;;;10.52;;
30010;SDS011;16851;53.564;8.112;2023-05-07T06:17:55;13.57;;;10.43;;
30010;SDS011;16851;53.564;8.112;2023-05-07T06:22:58;12.73;;;10.48;;
30010;SDS011;16851;53.564;8.112;2023-05-07T06:28:01;11.65;;;9.52;;
30010;SDS011;16851;53.564;8.112;2023-05-07T06:33:08;11.15;;;9.75;;
30010;SDS011;16851;53.564;8.112;2023-05-07T06:38:12;11.93;;;10.47;;
30010;SDS011;16851;53.564;8.112;2023-05-07T06:43:15;11.97;;;10.17;;
30010;SDS011;16851;53.564;8.112;2023-05-07T06:48:28;10.93;;;9.77;;
30010;SDS011;16851;53.564;8.112;2023-05-07T06:53:36;10.68;;;9.57;;
30010;SDS011;16851;53.564;8.112;2023-05-07T06:58:43;11.10;;;9.82;;
30010;SDS011;16851;53.564;8.112;2023-05-07T07:03:47;13.65;;;10.98;;
30010;SDS011;16851;53.564;8.112;2023-05-07T07:08:54;10.83;;;9.73;;
30010;SDS011;16851;53.564;8.112;2023-05-07T07:13:56;11.98;;;10.07;;
30010;SDS011;16851;53.564;8.112;2023-05-07T07:18:58;13.20;;;11.00;;
30010;SDS011;16851;53.564;8.112;2023-05-07T07:24:00;11.38;;;10.00;;
30010;SDS011;16851;53.564;8.112;2023-05-07T07:29:04;13.43;;;11.38;;
30010;SDS011;16851;53.564;8.112;2023-05-07T07:34:12;10.77;;;9.25;;
30010;SDS011;16851;53.564;8.112;2023-05-07T07:39:19;11.23;;;10.05;;
30010;SDS011;16851;53.564;8.112;2023-05-07T07:44:27;10.40;;;9.23;;
30010;SDS011;16851;53.564;8.112;2023-05-07T07:49:33;10.30;;;9.20;;
30010;SDS011;16851;53.564;8.112;2023-05-07T07:54:38;11.25;;;9.48;;
30010;SDS011;16851;53.564;8.112;2023-05-07T07:59:45;10.32;;;9.23;;
30010;SDS011;16851;53.564;8.112;2023-05-07T08:04:49;10.50;;;9.40;;
30010;SDS011;16851;53.564;8.112;2023-05-07T08:09:53;9.85;;;8.65;;
30010;SDS011;16851;53.564;8.112;2023-05-07T08:14:58;10.20;;;9.10;;
30010;SDS011;16851;53.564;8.112;2023-05-07T08:20:03;13.57;;;8.73;;
30010;SDS011;16851;53.564;8.112;2023-05-07T08:25:08;11.32;;;9.30;;
30010;SDS011;16851;53.564;8.112;2023-05-07T08:30:13;12.20;;;10.68;;
30010;SDS011;16851;53.564;8.112;2023-05-07T08:35:20;9.23;;;8.07;;
30010;SDS011;16851;53.564;8.112;2023-05-07T08:40:25;8.88;;;7.65;;
30010;SDS011;16851;53.564;8.112;2023-05-07T08:45:33;10.48;;;7.93;;
30010;SDS011;16851;53.564;8.112;2023-05-07T08:50:37;7.82;;;6.95;;
30010;SDS011;16851;53.564;8.112;2023-05-07T08:55:40;8.70;;;7.57;;
30010;SDS011;16851;53.564;8.112;2023-05-07T09:00:42;8.20;;;7.22;;
30010;SDS011;16851;53.564;8.112;2023-05-07T09:05:46;7.68;;;6.50;;
30010;SDS011;16851;53.564;8.112;2023-05-07T09:10:51;8.85;;;7.32;;
30010;SDS011;16851;53.564;8.112;2023-05-07T09:15:53;7.60;;;6.80;;
30010;SDS011;16851;53.564;8.112;2023-05-07T09:20:57;7.93;;;6.32;;
30010;SDS011;16851;53.564;8.112;2023-05-07T09:25:59;7.43;;;6.38;;
30010;SDS011;16851;53.564;8.112;2023-05-07T09:31:05;7.20;;;5.65;;
30010;SDS011;16851;53.564;8.112;2023-05-07T09:36:08;8.98;;;6.38;;
30010;SDS011;16851;53.564;8.112;2023-05-07T09:41:14;7.72;;;6.90;;
30010;SDS011;16851;53.564;8.112;2023-05-07T09:46:27;7.70;;;6.80;;
30010;SDS011;16851;53.564;8.112;2023-05-07T09:56:53;8.82;;;7.05;;
30010;SDS011;16851;53.564;8.112;2023-05-07T10:01:59;9.40;;;8.40;;
30010;SDS011;16851;53.564;8.112;2023-05-07T10:07:06;8.43;;;7.53;;
30010;SDS011;16851;53.564;8.112;2023-05-07T10:12:11;8.57;;;7.10;;
30010;SDS011;16851;53.564;8.112;2023-05-07T10:17:13;9.60;;;7.88;;
30010;SDS011;16851;53.564;8.112;2023-05-07T10:22:19;9.05;;;7.57;;
30010;SDS011;16851;53.564;8.112;2023-05-07T10:27:25;8.85;;;7.22;;
30010;SDS011;16851;53.564;8.112;2023-05-07T10:32:37;9.90;;;7.95;;
30010;SDS011;16851;53.564;8.112;2023-05-07T10:37:45;10.00;;;7.88;;
30010;SDS011;16851;53.564;8.112;2023-05-07T10:42:57;8.88;;;7.13;;
30010;SDS011;16851;53.564;8.112;2023-05-07T10:53:34;12.52;;;8.05;;
30010;SDS011;16851;53.564;8.112;2023-05-07T10:58:42;8.75;;;7.22;;
30010;SDS011;16851;53.564;8.112;2023-05-07T11:04:14;9.48;;;7.60;;
30010;SDS011;16851;53.564;8.112;2023-05-07T11:14:56;8.25;;;7.30;;
30010;SDS011;16851;53.564;8.112;2023-05-07T11:20:07;11.43;;;7.32;;
30010;SDS011;16851;53.564;8.112;2023-05-07T11:25:21;7.88;;;6.53;;
30010;SDS011;16851;53.564;8.112;2023-05-07T11:30:32;8.95;;;7.68;;
30010;SDS011;16851;53.564;8.112;2023-05-07T11:35:38;8.38;;;7.07;;
30010;SDS011;16851;53.564;8.112;2023-05-07T11:40:49;9.55;;;7.35;;
30010;SDS011;16851;53.564;8.112;2023-05-07T11:45:54;9.18;;;6.57;;
30010;SDS011;16851;53.564;8.112;2023-05-07T11:51:02;8.60;;;6.72;;
30010;SDS011;16851;53.564;8.112;2023-05-07T11:56:10;9.48;;;6.65;;
30010;SDS011;16851;53.564;8.112;2023-05-07T12:01:20;9.30;;;6.53;;
30010;SDS011;16851;53.564;8.112;2023-05-07T12:06:22;7.85;;;6.20;;
30010;SDS011;16851;53.564;8.112;2023-05-07T12:11:25;7.63;;;6.43;;
30010;SDS011;16851;53.564;8.112;2023-05-07T12:16:29;7.45;;;6.20;;
30010;SDS011;16851;53.564;8.112;2023-05-07T12:21:32;9.88;;;5.90;;
30010;SDS011;16851;53.564;8.112;2023-05-07T12:26:38;6.20;;;5.53;;
30010;SDS011;16851;53.564;8.112;2023-05-07T12:31:42;7.10;;;5.68;;
30010;SDS011;16851;53.564;8.112;2023-05-07T12:36:44;6.40;;;5.45;;
30010;SDS011;16851;53.564;8.112;2023-05-07T12:41:55;7.88;;;5.07;;
30010;SDS011;16851;53.564;8.112;2023-05-07T12:47:02;9.55;;;6.68;;
30010;SDS011;16851;53.564;8.112;2023-05-07T12:52:04;8.13;;;5.25;;
30010;SDS011;16851;53.564;8.112;2023-05-07T12:57:09;5.85;;;5.03;;
30010;SDS011;16851;53.564;8.112;2023-05-07T13:02:13;6.70;;;5.20;;
30010;SDS011;16851;53.564;8.112;2023-05-07T13:07:18;5.22;;;4.72;;
30010;SDS011;16851;53.564;8.112;2023-05-07T13:12:19;5.70;;;5.07;;
30010;SDS011;16851;53.564;8.112;2023-05-07T13:17:21;5.53;;;4.78;;
30010;SDS011;16851;53.564;8.112;2023-05-07T13:22:23;6.27;;;5.00;;
30010;SDS011;16851;53.564;8.112;2023-05-07T13:27:25;5.72;;;4.68;;
30010;SDS011;16851;53.564;8.112;2023-05-07T13:32:27;6.45;;;4.30;;
30010;SDS011;16851;53.564;8.112;2023-05-07T13:37:31;4.85;;;4.22;;
30010;SDS011;16851;53.564;8.112;2023-05-07T13:42:35;7.40;;;4.60;;
30010;SDS011;16851;53.564;8.112;2023-05-07T13:47:40;7.47;;;4.20;;
30010;SDS011;16851;53.564;8.112;2023-05-07T13:52:47;5.47;;;4.00;;
30010;SDS011;16851;53.564;8.112;2023-05-07T13:57:55;5.38;;;3.88;;
30010;SDS011;16851;53.564;8.112;2023-05-07T14:03:04;4.72;;;3.70;;
30010;SDS011;16851;53.564;8.112;2023-05-07T14:08:06;4.88;;;3.63;;
30010;SDS011;16851;53.564;8.112;2023-05-07T14:13:12;4.05;;;3.67;;
30010;SDS011;16851;53.564;8.112;2023-05-07T14:18:14;4.70;;;3.72;;
30010;SDS011;16851;53.564;8.112;2023-05-07T14:23:16;5.88;;;4.25;;
30010;SDS011;16851;53.564;8.112;2023-05-07T14:28:20;5.60;;;3.65;;
30010;SDS011;16851;53.564;8.112;2023-05-07T14:33:25;5.88;;;3.40;;
30010;SDS011;16851;53.564;8.112;2023-05-07T14:38:31;3.97;;;3.10;;
30010;SDS011;16851;53.564;8.112;2023-05-07T14:43:36;4.07;;;2.88;;
30010;SDS011;16851;53.564;8.112;2023-05-07T14:48:38;4.40;;;3.10;;
30010;SDS011;16851;53.564;8.112;2023-05-07T14:53:43;3.20;;;2.60;;
30010;SDS011;16851;53.564;8.112;2023-05-07T14:58:47;5.22;;;2.60;;
30010;SDS011;16851;53.564;8.112;2023-05-07T15:03:52;3.72;;;2.60;;
30010;SDS011;16851;53.564;8.112;2023-05-07T15:08:56;3.22;;;2.38;;
30010;SDS011;16851;53.564;8.112;2023-05-07T15:14:05;2.95;;;2.38;;
30010;SDS011;16851;53.564;8.112;2023-05-07T15:19:06;2.67;;;2.30;;
30010;SDS011;16851;53.564;8.112;2023-05-07T15:24:08;3.13;;;2.25;;
30010;SDS011;16851;53.564;8.112;2023-05-07T15:29:10;3.22;;;2.63;;
30010;SDS011;16851;53.564;8.112;2023-05-07T15:34:12;2.63;;;2.40;;
30010;SDS011;16851;53.564;8.112;2023-05-07T15:39:19;5.25;;;2.88;;
30010;SDS011;16851;53.564;8.112;2023-05-07T15:44:25;5.43;;;2.65;;
30010;SDS011;16851;53.564;8.112;2023-05-07T15:49:34;3.17;;;2.80;;
30010;SDS011;16851;53.564;8.112;2023-05-07T15:54:41;3.72;;;2.80;;
30010;SDS011;16851;53.564;8.112;2023-05-07T15:59:43;3.35;;;2.72;;
30010;SDS011;16851;53.564;8.112;2023-05-07T16:04:45;5.30;;;2.60;;
30010;SDS011;16851;53.564;8.112;2023-05-07T16:09:47;5.20;;;2.53;;
30010;SDS011;16851;53.564;8.112;2023-05-07T16:14:51;3.95;;;2.53;;
30010;SDS011;16851;53.564;8.112;2023-05-07T16:19:52;5.38;;;2.63;;
30010;SDS011;16851;53.564;8.112;2023-05-07T16:24:57;4.20;;;2.72;;
30010;SDS011;16851;53.564;8.112;2023-05-07T16:29:58;2.83;;;2.50;;
30010;SDS011;16851;53.564;8.112;2023-05-07T16:35:00;3.22;;;2.33;;
30010;SDS011;16851;53.564;8.112;2023-05-07T16:40:05;4.20;;;2.50;;
30010;SDS011;16851;53.564;8.112;2023-05-07T16:45:08;4.65;;;2.35;;
30010;SDS011;16851;53.564;8.112;2023-05-07T16:50:12;7.78;;;2.80;;
30010;SDS011;16851;53.564;8.112;2023-05-07T16:55:15;4.43;;;2.90;;
30010;SDS011;16851;53.564;8.112;2023-05-07T17:00:17;6.03;;;2.75;;
30010;SDS011;16851;53.564;8.112;2023-05-07T17:05:22;3.88;;;2.78;;
30010;SDS011;16851;53.564;8.112;2023-05-07T17:10:26;5.85;;;3.10;;
30010;SDS011;16851;53.564;8.112;2023-05-07T17:15:30;4.82;;;3.10;;
30010;SDS011;16851;53.564;8.112;2023-05-07T17:20:34;3.58;;;3.20;;
30010;SDS011;16851;53.564;8.112;2023-05-07T17:25:36;3.30;;;3.00;;
30010;SDS011;16851;53.564;8.112;2023-05-07T17:30:38;4.57;;;2.83;;
30010;SDS011;16851;53.564;8.112;2023-05-07T17:35:42;5.53;;;3.08;;
30010;SDS011;16851;53.564;8.112;2023-05-07T17:40:44;6.57;;;3.75;;
30010;SDS011;16851;53.564;8.112;2023-05-07T17:45:46;4.30;;;3.03;;
30010;SDS011;16851;53.564;8.112;2023-05-07T17:50:48;5.10;;;3.08;;
30010;SDS011;16851;53.564;8.112;2023-05-07T17:55:51;4.85;;;3.15;;
30010;SDS011;16851;53.564;8.112;2023-05-07T18:00:53;5.15;;;3.75;;
30010;SDS011;16851;53.564;8.112;2023-05-07T18:05:57;5.90;;;3.50;;
30010;SDS011;16851;53.564;8.112;2023-05-07T18:11:00;6.25;;;3.50;;
30010;SDS011;16851;53.564;8.112;2023-05-07T18:16:07;4.45;;;3.58;;
30010;SDS011;16851;53.564;8.112;2023-05-07T18:21:09;5.25;;;3.80;;
30010;SDS011;16851;53.564;8.112;2023-05-07T18:26:18;5.18;;;3.92;;
30010;SDS011;16851;53.564;8.112;2023-05-07T18:31:22;4.97;;;3.78;;
30010;SDS011;16851;53.564;8.112;2023-05-07T18:36:27;5.00;;;3.83;;
30010;SDS011;16851;53.564;8.112;2023-05-07T18:41:32;3.97;;;3.47;;
30010;SDS011;16851;53.564;8.112;2023-05-07T18:46:33;5.28;;;3.90;;
30010;SDS011;16851;53.564;8.112;2023-05-07T18:51:38;4.95;;;3.65;;
30010;SDS011;16851;53.564;8.112;2023-05-07T18:56:44;4.28;;;3.88;;
30010;SDS011;16851;53.564;8.112;2023-05-07T19:01:51;4.68;;;3.83;;
30010;SDS011;16851;53.564;8.112;2023-05-07T19:06:55;7.88;;;4.10;;
30010;SDS011;16851;53.564;8.112;2023-05-07T19:12:00;5.68;;;4.22;;
30010;SDS011;16851;53.564;8.112;2023-05-07T19:17:06;5.28;;;4.03;;
30010;SDS011;16851;53.564;8.112;2023-05-07T19:22:08;5.05;;;3.95;;
30010;SDS011;16851;53.564;8.112;2023-05-07T19:27:16;5.93;;;4.47;;
30010;SDS011;16851;53.564;8.112;2023-05-07T19:32:18;4.45;;;4.03;;
30010;SDS011;16851;53.564;8.112;2023-05-07T19:37:21;4.85;;;4.15;;
30010;SDS011;16851;53.564;8.112;2023-05-07T19:42:30;5.50;;;4.20;;
30010;SDS011;16851;53.564;8.112;2023-05-07T19:47:32;4.32;;;3.55;;
30010;SDS011;16851;53.564;8.112;2023-05-07T19:52:36;6.25;;;4.80;;
30010;SDS011;16851;53.564;8.112;2023-05-07T19:57:40;4.45;;;3.78;;
30010;SDS011;16851;53.564;8.112;2023-05-07T20:02:42;7.13;;;4.10;;
30010;SDS011;16851;53.564;8.112;2023-05-07T20:07:43;5.30;;;3.88;;
30010;SDS011;16851;53.564;8.112;2023-05-07T20:12:48;5.85;;;3.97;;
30010;SDS011;16851;53.564;8.112;2023-05-07T20:17:52;4.95;;;3.83;;
30010;SDS011;16851;53.564;8.112;2023-05-07T20:22:54;6.03;;;4.28;;
30010;SDS011;16851;53.564;8.112;2023-05-07T20:27:56;5.57;;;3.92;;
30010;SDS011;16851;53.564;8.112;2023-05-07T20:32:58;4.10;;;3.50;;
30010;SDS011;16851;53.564;8.112;2023-05-07T20:38:06;4.35;;;3.58;;
30010;SDS011;16851;53.564;8.112;2023-05-07T20:43:10;4.00;;;3.60;;
30010;SDS011;16851;53.564;8.112;2023-05-07T20:48:12;4.45;;;4.00;;
30010;SDS011;16851;53.564;8.112;2023-05-07T20:53:19;4.85;;;3.70;;
30010;SDS011;16851;53.564;8.112;2023-05-07T20:58:23;6.15;;;3.50;;
30010;SDS011;16851;53.564;8.112;2023-05-07T21:03:26;4.57;;;3.65;;
30010;SDS011;16851;53.564;8.112;2023-05-07T21:08:30;6.78;;;3.42;;
30010;SDS011;16851;53.564;8.112;2023-05-07T21:13:32;5.50;;;3.35;;
30010;SDS011;16851;53.564;8.112;2023-05-07T21:18:34;4.68;;;3.72;;
30010;SDS011;16851;53.564;8.112;2023-05-07T21:23:36;5.30;;;3.70;;
30010;SDS011;16851;53.564;8.112;2023-05-07T21:28:38;5.38;;;4.20;;
30010;SDS011;16851;53.564;8.112;2023-05-07T21:33:41;4.53;;;4.07;;
30010;SDS011;16851;53.564;8.112;2023-05-07T21:38:45;5.40;;;4.07;;
30010;SDS011;16851;53.564;8.112;2023-05-07T21:43:52;5.40;;;4.75;;
30010;SDS011;16851;53.564;8.112;2023-05-07T21:48:56;5.85;;;4.90;;
30010;SDS011;16851;53.564;8.112;2023-05-07T21:54:00;8.80;;;4.93;;
30010;SDS011;16851;53.564;8.112;2023-05-07T21:59:04;5.50;;;4.90;;
30010;SDS011;16851;53.564;8.112;2023-05-07T22:04:06;8.45;;;4.97;;
30010;SDS011;16851;53.564;8.112;2023-05-07T22:09:08;6.05;;;5.38;;
30010;SDS011;16851;53.564;8.112;2023-05-07T22:14:11;8.40;;;5.32;;
30010;SDS011;16851;53.564;8.112;2023-05-07T22:19:15;6.38;;;5.38;;
30010;SDS011;16851;53.564;8.112;2023-05-07T22:24:17;6.75;;;5.53;;
30010;SDS011;16851;53.564;8.112;2023-05-07T22:29:18;6.47;;;5.78;;
30010;SDS011;16851;53.564;8.112;2023-05-07T22:34:23;13.38;;;5.63;;
30010;SDS011;16851;53.564;8.112;2023-05-07T22:39:27;6.63;;;5.95;;
30010;SDS011;16851;53.564;8.112;2023-05-07T22:44:37;6.50;;;5.47;;
30010;SDS011;16851;53.564;8.112;2023-05-07T22:49:41;7.70;;;5.30;;
30010;SDS011;16851;53.564;8.112;2023-05-07T22:54:45;7.10;;;5.65;;
30010;SDS011;16851;53.564;8.112;2023-05-07T22:59:53;6.53;;;5.50;;
30010;SDS011;16851;53.564;8.112;2023-05-07T23:04:58;6.50;;;5.05;;
30010;SDS011;16851;53.564;8.112;2023-05-07T23:10:01;6.80;;;5.07;;
30010;SDS011;16851;53.564;8.112;2023-05-07T23:15:05;6.00;;;5.00;;
30010;SDS011;16851;53.564;8.112;2023-05-07T23:20:07;17.65;;;5.40;;
30010;SDS011;16851;53.564;8.112;2023-05-07T23:25:10;6.15;;;5.05;;
30010;SDS011;16851;53.564;8.112;2023-05-07T23:30:14;7.80;;;5.50;;
30010;SDS011;16851;53.564;8.112;2023-05-07T23:35:16;7.75;;;5.20;;
30010;SDS011;16851;53.564;8.112;2023-05-07T23:40:18;6.25;;;5.25;;
30010;SDS011;16851;53.564;8.112;2023-05-07T23:45:20;6.60;;;5.28;;
30010;SDS011;16851;53.564;8.112;2023-05-07T23:50:24;7.15;;;5.45;;
30010;SDS011;16851;53.564;8.112;2023-05-07T23:55:28;6.53;;;5.35;;
